Aérodrome :
LOGIN :

S'inscrire | Disclaimer

   EN    FR    IT 

 










Légende :    VFR   VFR Marginal   IFR   IFR Intensif   IFR Très Intensif
Visi : 
Plafond : 
>= 8 km
>= 3000ft
5 à 8 km
1000 à 3000 ft
1500m à 5 km
500 à 1000 ft
800 à 1500m
200 à 500 ft
< 800m
< 200 ft
Symboles :   Orages  Brouillard  Fortes neiges  Fortes précipitations  Vent > 20 kt
SIGMETs :   Divers  Orages  Givrage  Turbulence  Onde Orograph.  Cendres Volcan.






- Altitude de l'aérodrome : 1249 ft


ETSN - Neuburg AB

DERNIER METAR :
  • 201720Z 08003KT 9999 BKN015 05/02 Q1013 WHT WHT TEMPO GRN

METARs EXPIRÉS :
  • 201620Z 10005KT 9999 BKN016 05/02 Q1013 WHT WHT TEMPO GRN
  • 201520Z 18001KT 9999 BKN018 05/02 Q1013 WHT WHT TEMPO GRN

TAF TAF ETSN
Valide du 20 à 15h jusqu'au 21 à 00h UTC


201420Z 2015/2024 04003KT 9999 NSW BKN018
TEMPO 2015/2024 03003KT 9999 NSW BKN012 BY ETGL



MET'MAP, la Météo Aéronautique d'un coup d'oeil ! - Copyright ORBIFLY Décembre 2007 - Disclaimer

ORBIFLY MET'MAP TEAM :

Programmation & Développement : Alexandra Zaïnal
Conception & Développement : Baudouin d'Aumeries
Co-Programmation & Développement : Marc-Olivier Méhu
Soutien technique & logistique : Manuel Goepfert

Contact : metmap@orbifly.com




SOURCES & CREDITS :

   NOAA